sensor_id;sensor_type;location;lat;lon;timestamp;temperature;humidity
10964;DHT22;5534;48.784;9.190;2023-02-20T00:00:36;11.30;99.90
10964;DHT22;5534;48.784;9.190;2023-02-20T00:03:03;11.40;99.90
10964;DHT22;5534;48.784;9.190;2023-02-20T00:05:29;11.40;99.90
10964;DHT22;5534;48.784;9.190;2023-02-20T00:07:55;11.40;99.90
10964;DHT22;5534;48.784;9.190;2023-02-20T00:10:21;11.50;99.90
10964;DHT22;5534;48.784;9.190;2023-02-20T00:12:49;11.30;99.90
10964;DHT22;5534;48.784;9.190;2023-02-20T00:15:16;11.30;99.90
10964;DHT22;5534;48.784;9.190;2023-02-20T00:17:44;11.40;99.90
10964;DHT22;5534;48.784;9.190;2023-02-20T00:20:17;11.40;99.90
10964;DHT22;5534;48.784;9.190;2023-02-20T00:22:43;11.40;99.90
10964;DHT22;5534;48.784;9.190;2023-02-20T00:25:10;11.40;99.90
10964;DHT22;5534;48.784;9.190;2023-02-20T00:27:36;11.40;99.90
10964;DHT22;5534;48.784;9.190;2023-02-20T00:30:02;11.40;99.90
10964;DHT22;5534;48.784;9.190;2023-02-20T00:32:28;11.20;99.90
10964;DHT22;5534;48.784;9.190;2023-02-20T00:34:54;11.30;99.90
10964;DHT22;5534;48.784;9.190;2023-02-20T00:37:20;11.40;99.90
10964;DHT22;5534;48.784;9.190;2023-02-20T00:39:45;11.30;99.90
10964;DHT22;5534;48.784;9.190;2023-02-20T00:42:11;11.20;99.90
10964;DHT22;5534;48.784;9.190;2023-02-20T00:44:37;11.10;99.90
10964;DHT22;5534;48.784;9.190;2023-02-20T00:47:03;11.00;99.90
10964;DHT22;5534;48.784;9.190;2023-02-20T00:49:29;11.10;99.90
10964;DHT22;5534;48.784;9.190;2023-02-20T00:51:54;11.00;99.90
10964;DHT22;5534;48.784;9.190;2023-02-20T00:54:20;11.00;99.90
10964;DHT22;5534;48.784;9.190;2023-02-20T00:56:46;11.10;99.90
10964;DHT22;5534;48.784;9.190;2023-02-20T00:59:12;11.00;99.90
10964;DHT22;5534;48.784;9.190;2023-02-20T01:01:37;11.10;99.90
10964;DHT22;5534;48.784;9.190;2023-02-20T01:04:03;11.30;99.90
10964;DHT22;5534;48.784;9.190;2023-02-20T01:06:29;11.30;99.90
10964;DHT22;5534;48.784;9.190;2023-02-20T01:08:55;11.30;99.90
10964;DHT22;5534;48.784;9.190;2023-02-20T01:11:21;11.10;99.90
10964;DHT22;5534;48.784;9.190;2023-02-20T01:13:47;11.00;99.90
10964;DHT22;5534;48.784;9.190;2023-02-20T01:16:13;10.90;99.90
10964;DHT22;5534;48.784;9.190;2023-02-20T01:18:38;10.90;99.90
10964;DHT22;5534;48.784;9.190;2023-02-20T01:21:04;11.00;99.90
10964;DHT22;5534;48.784;9.190;2023-02-20T01:23:30;10.80;99.90
10964;DHT22;5534;48.784;9.190;2023-02-20T01:25:56;10.90;99.90
10964;DHT22;5534;48.784;9.190;2023-02-20T01:28:21;10.70;99.90
10964;DHT22;5534;48.784;9.190;2023-02-20T01:30:47;10.80;99.90
10964;DHT22;5534;48.784;9.190;2023-02-20T01:33:13;10.90;99.90
10964;DHT22;5534;48.784;9.190;2023-02-20T01:35:39;10.80;99.90
10964;DHT22;5534;48.784;9.190;2023-02-20T01:38:04;10.80;99.90
10964;DHT22;5534;48.784;9.190;2023-02-20T01:40:32;10.80;99.90
10964;DHT22;5534;48.784;9.190;2023-02-20T01:42:59;10.90;99.90
10964;DHT22;5534;48.784;9.190;2023-02-20T01:47:52;10.80;99.90
10964;DHT22;5534;48.784;9.190;2023-02-20T01:50:21;10.50;99.90
10964;DHT22;5534;48.784;9.190;2023-02-20T01:52:51;10.70;99.90
10964;DHT22;5534;48.784;9.190;2023-02-20T01:55:24;10.70;99.90
10964;DHT22;5534;48.784;9.190;2023-02-20T01:57:56;10.60;99.90
10964;DHT22;5534;48.784;9.190;2023-02-20T02:00:23;10.70;99.90
10964;DHT22;5534;48.784;9.190;2023-02-20T02:03:04;10.60;99.90
10964;DHT22;5534;48.784;9.190;2023-02-20T02:05:32;10.70;99.90
10964;DHT22;5534;48.784;9.190;2023-02-20T02:07:59;10.70;99.90
10964;DHT22;5534;48.784;9.190;2023-02-20T02:10:30;10.40;99.90
10964;DHT22;5534;48.784;9.190;2023-02-20T02:12:57;10.40;99.90
10964;DHT22;5534;48.784;9.190;2023-02-20T02:15:23;10.40;99.90
10964;DHT22;5534;48.784;9.190;2023-02-20T02:26:45;10.80;99.90
10964;DHT22;5534;48.784;9.190;2023-02-20T02:35:23;10.80;99.90
10964;DHT22;5534;48.784;9.190;2023-02-20T02:38:20;10.80;99.90
10964;DHT22;5534;48.784;9.190;2023-02-20T02:46:38;11.00;99.90
10964;DHT22;5534;48.784;9.190;2023-02-20T02:51:58;11.00;99.90
10964;DHT22;5534;48.784;9.190;2023-02-20T02:54:26;11.00;99.90
10964;DHT22;5534;48.784;9.190;2023-02-20T02:59:37;11.00;99.90
10964;DHT22;5534;48.784;9.190;2023-02-20T03:02:07;11.10;99.90
10964;DHT22;5534;48.784;9.190;2023-02-20T03:04:35;11.10;99.90
10964;DHT22;5534;48.784;9.190;2023-02-20T03:07:09;11.00;99.90
10964;DHT22;5534;48.784;9.190;2023-02-20T03:09:44;11.00;99.90
10964;DHT22;5534;48.784;9.190;2023-02-20T03:12:12;10.90;99.90
10964;DHT22;5534;48.784;9.190;2023-02-20T03:14:50;10.90;99.90
10964;DHT22;5534;48.784;9.190;2023-02-20T03:17:46;10.90;99.90
10964;DHT22;5534;48.784;9.190;2023-02-20T03:20:15;10.90;99.90
10964;DHT22;5534;48.784;9.190;2023-02-20T03:25:24;11.00;99.90
10964;DHT22;5534;48.784;9.190;2023-02-20T03:27:52;10.90;99.90
10964;DHT22;5534;48.784;9.190;2023-02-20T03:32:56;10.90;99.90
10964;DHT22;5534;48.784;9.190;2023-02-20T03:35:43;10.70;99.90
10964;DHT22;5534;48.784;9.190;2023-02-20T03:38:31;10.80;99.90
10964;DHT22;5534;48.784;9.190;2023-02-20T03:41:17;10.80;99.90
10964;DHT22;5534;48.784;9.190;2023-02-20T03:44:03;10.80;99.90
10964;DHT22;5534;48.784;9.190;2023-02-20T03:46:32;10.60;99.90
10964;DHT22;5534;48.784;9.190;2023-02-20T03:49:07;10.70;99.90
10964;DHT22;5534;48.784;9.190;2023-02-20T03:51:35;10.70;99.90
10964;DHT22;5534;48.784;9.190;2023-02-20T03:54:00;10.60;99.90
10964;DHT22;5534;48.784;9.190;2023-02-20T03:56:34;10.70;99.90
10964;DHT22;5534;48.784;9.190;2023-02-20T03:59:11;10.70;99.90
10964;DHT22;5534;48.784;9.190;2023-02-20T04:01:40;10.80;99.90
10964;DHT22;5534;48.784;9.190;2023-02-20T04:04:11;10.70;99.90
10964;DHT22;5534;48.784;9.190;2023-02-20T04:06:39;10.70;99.90
10964;DHT22;5534;48.784;9.190;2023-02-20T04:09:20;10.70;99.90
10964;DHT22;5534;48.784;9.190;2023-02-20T04:11:51;10.80;99.90
10964;DHT22;5534;48.784;9.190;2023-02-20T04:14:21;10.70;99.90
10964;DHT22;5534;48.784;9.190;2023-02-20T04:16:55;10.70;99.90
10964;DHT22;5534;48.784;9.190;2023-02-20T04:19:23;10.50;99.90
10964;DHT22;5534;48.784;9.190;2023-02-20T04:21:53;10.60;99.90
10964;DHT22;5534;48.784;9.190;2023-02-20T04:27:24;10.60;99.90
10964;DHT22;5534;48.784;9.190;2023-02-20T04:29:50;10.60;99.90
10964;DHT22;5534;48.784;9.190;2023-02-20T04:32:16;10.50;99.90
10964;DHT22;5534;48.784;9.190;2023-02-20T04:34:42;10.50;99.90
10964;DHT22;5534;48.784;9.190;2023-02-20T04:37:11;10.50;99.90
10964;DHT22;5534;48.784;9.190;2023-02-20T04:39:37;10.50;99.90
10964;DHT22;5534;48.784;9.190;2023-02-20T04:42:03;10.50;99.90
10964;DHT22;5534;48.784;9.190;2023-02-20T04:44:30;10.60;99.90
10964;DHT22;5534;48.784;9.190;2023-02-20T04:46:57;10.60;99.90
10964;DHT22;5534;48.784;9.190;2023-02-20T04:49:23;10.50;99.90
10964;DHT22;5534;48.784;9.190;2023-02-20T04:51:48;10.50;99.90
10964;DHT22;5534;48.784;9.190;2023-02-20T04:54:14;10.40;99.90
10964;DHT22;5534;48.784;9.190;2023-02-20T04:56:40;10.30;99.90
10964;DHT22;5534;48.784;9.190;2023-02-20T04:59:06;10.30;99.90
10964;DHT22;5534;48.784;9.190;2023-02-20T05:01:34;10.40;99.90
10964;DHT22;5534;48.784;9.190;2023-02-20T05:04:01;10.40;99.90
10964;DHT22;5534;48.784;9.190;2023-02-20T05:06:26;10.40;99.90
10964;DHT22;5534;48.784;9.190;2023-02-20T05:08:52;10.30;99.90
10964;DHT22;5534;48.784;9.190;2023-02-20T05:11:18;10.30;99.90
10964;DHT22;5534;48.784;9.190;2023-02-20T05:13:43;10.30;99.90
10964;DHT22;5534;48.784;9.190;2023-02-20T05:16:09;10.30;99.90
10964;DHT22;5534;48.784;9.190;2023-02-20T05:18:35;10.30;99.90
10964;DHT22;5534;48.784;9.190;2023-02-20T05:21:01;10.30;99.90
10964;DHT22;5534;48.784;9.190;2023-02-20T05:23:45;10.30;99.90
10964;DHT22;5534;48.784;9.190;2023-02-20T05:26:14;10.20;99.90
10964;DHT22;5534;48.784;9.190;2023-02-20T05:28:41;10.20;99.90
10964;DHT22;5534;48.784;9.190;2023-02-20T05:31:07;10.20;99.90
10964;DHT22;5534;48.784;9.190;2023-02-20T05:33:32;10.20;99.90
10964;DHT22;5534;48.784;9.190;2023-02-20T05:35:59;10.20;99.90
10964;DHT22;5534;48.784;9.190;2023-02-20T05:38:24;10.10;99.90
10964;DHT22;5534;48.784;9.190;2023-02-20T05:40:50;10.10;99.90
10964;DHT22;5534;48.784;9.190;2023-02-20T05:43:17;10.00;99.90
10964;DHT22;5534;48.784;9.190;2023-02-20T05:45:43;10.00;99.90
10964;DHT22;5534;48.784;9.190;2023-02-20T05:48:11;10.00;99.90
10964;DHT22;5534;48.784;9.190;2023-02-20T05:50:37;10.00;99.90
10964;DHT22;5534;48.784;9.190;2023-02-20T05:53:03;10.00;99.90
10964;DHT22;5534;48.784;9.190;2023-02-20T05:55:29;10.00;99.90
10964;DHT22;5534;48.784;9.190;2023-02-20T05:57:56;10.00;99.90
10964;DHT22;5534;48.784;9.190;2023-02-20T06:00:22;10.00;99.90
10964;DHT22;5534;48.784;9.190;2023-02-20T06:02:50;10.00;99.90
10964;DHT22;5534;48.784;9.190;2023-02-20T06:05:16;10.00;99.90
10964;DHT22;5534;48.784;9.190;2023-02-20T06:07:43;10.00;99.90
10964;DHT22;5534;48.784;9.190;2023-02-20T06:10:09;10.10;99.90
10964;DHT22;5534;48.784;9.190;2023-02-20T06:12:35;10.00;99.90
10964;DHT22;5534;48.784;9.190;2023-02-20T06:15:00;9.90;99.90
10964;DHT22;5534;48.784;9.190;2023-02-20T06:17:26;9.90;99.90
10964;DHT22;5534;48.784;9.190;2023-02-20T06:19:54;10.00;99.90
10964;DHT22;5534;48.784;9.190;2023-02-20T06:22:19;10.00;99.90
10964;DHT22;5534;48.784;9.190;2023-02-20T06:24:46;10.00;99.90
10964;DHT22;5534;48.784;9.190;2023-02-20T06:27:16;10.00;99.90
10964;DHT22;5534;48.784;9.190;2023-02-20T06:29:42;9.90;99.90
10964;DHT22;5534;48.784;9.190;2023-02-20T06:32:08;9.90;99.90
10964;DHT22;5534;48.784;9.190;2023-02-20T06:34:34;10.00;99.90
10964;DHT22;5534;48.784;9.190;2023-02-20T06:37:01;10.00;99.90
10964;DHT22;5534;48.784;9.190;2023-02-20T06:39:28;9.90;99.90
10964;DHT22;5534;48.784;9.190;2023-02-20T06:41:54;9.90;99.90
10964;DHT22;5534;48.784;9.190;2023-02-20T06:44:20;9.90;99.90
10964;DHT22;5534;48.784;9.190;2023-02-20T06:46:46;9.70;99.90
10964;DHT22;5534;48.784;9.190;2023-02-20T06:49:12;9.90;99.90
10964;DHT22;5534;48.784;9.190;2023-02-20T06:51:38;9.90;99.90
10964;DHT22;5534;48.784;9.190;2023-02-20T06:54:09;9.80;99.90
10964;DHT22;5534;48.784;9.190;2023-02-20T06:56:35;9.80;99.90
10964;DHT22;5534;48.784;9.190;2023-02-20T06:59:03;9.80;99.90
10964;DHT22;5534;48.784;9.190;2023-02-20T07:01:36;9.90;99.90
10964;DHT22;5534;48.784;9.190;2023-02-20T07:04:04;9.90;99.90
10964;DHT22;5534;48.784;9.190;2023-02-20T07:06:30;10.00;99.90
10964;DHT22;5534;48.784;9.190;2023-02-20T07:08:56;10.00;99.90
10964;DHT22;5534;48.784;9.190;2023-02-20T07:11:22;10.00;99.90
10964;DHT22;5534;48.784;9.190;2023-02-20T07:13:49;9.90;99.90
10964;DHT22;5534;48.784;9.190;2023-02-20T07:16:15;9.80;99.90
10964;DHT22;5534;48.784;9.190;2023-02-20T07:18:41;9.80;99.90
10964;DHT22;5534;48.784;9.190;2023-02-20T07:21:07;9.90;99.90
10964;DHT22;5534;48.784;9.190;2023-02-20T07:23:33;9.90;99.90
10964;DHT22;5534;48.784;9.190;2023-02-20T07:25:59;10.00;99.90
10964;DHT22;5534;48.784;9.190;2023-02-20T07:28:25;9.90;99.90
10964;DHT22;5534;48.784;9.190;2023-02-20T07:30:50;9.90;99.90
10964;DHT22;5534;48.784;9.190;2023-02-20T07:33:17;10.00;99.90
10964;DHT22;5534;48.784;9.190;2023-02-20T07:35:43;10.00;99.90
10964;DHT22;5534;48.784;9.190;2023-02-20T07:38:09;10.10;99.90
10964;DHT22;5534;48.784;9.190;2023-02-20T07:40:35;10.10;99.90
10964;DHT22;5534;48.784;9.190;2023-02-20T07:43:01;10.10;99.90
10964;DHT22;5534;48.784;9.190;2023-02-20T07:45:27;10.10;99.90
10964;DHT22;5534;48.784;9.190;2023-02-20T07:47:52;10.00;99.90
10964;DHT22;5534;48.784;9.190;2023-02-20T07:50:18;10.00;99.90
10964;DHT22;5534;48.784;9.190;2023-02-20T07:52:44;10.10;99.90
10964;DHT22;5534;48.784;9.190;2023-02-20T07:55:16;10.20;99.90
10964;DHT22;5534;48.784;9.190;2023-02-20T07:57:45;10.20;99.90
10964;DHT22;5534;48.784;9.190;2023-02-20T08:00:16;10.10;99.90
10964;DHT22;5534;48.784;9.190;2023-02-20T08:02:42;10.10;99.90
10964;DHT22;5534;48.784;9.190;2023-02-20T08:05:08;10.20;99.90
10964;DHT22;5534;48.784;9.190;2023-02-20T08:07:34;10.10;99.90
10964;DHT22;5534;48.784;9.190;2023-02-20T08:10:00;10.00;99.90
10964;DHT22;5534;48.784;9.190;2023-02-20T08:12:25;10.10;99.90
10964;DHT22;5534;48.784;9.190;2023-02-20T08:14:54;10.10;99.90
10964;DHT22;5534;48.784;9.190;2023-02-20T08:17:19;10.20;99.90
10964;DHT22;5534;48.784;9.190;2023-02-20T08:19:45;10.30;99.90
10964;DHT22;5534;48.784;9.190;2023-02-20T08:22:11;10.30;99.90
10964;DHT22;5534;48.784;9.190;2023-02-20T08:24:37;10.40;99.90
10964;DHT22;5534;48.784;9.190;2023-02-20T08:27:03;10.50;99.90
10964;DHT22;5534;48.784;9.190;2023-02-20T08:29:29;10.50;99.90
10964;DHT22;5534;48.784;9.190;2023-02-20T08:31:55;10.60;99.90
10964;DHT22;5534;48.784;9.190;2023-02-20T08:34:20;10.40;99.90
10964;DHT22;5534;48.784;9.190;2023-02-20T08:36:46;10.50;99.90
10964;DHT22;5534;48.784;9.190;2023-02-20T08:39:12;10.50;99.90
10964;DHT22;5534;48.784;9.190;2023-02-20T08:41:45;10.40;99.90
10964;DHT22;5534;48.784;9.190;2023-02-20T08:44:12;10.60;99.90
10964;DHT22;5534;48.784;9.190;2023-02-20T08:46:45;10.50;99.90
10964;DHT22;5534;48.784;9.190;2023-02-20T08:49:11;10.60;99.90
10964;DHT22;5534;48.784;9.190;2023-02-20T08:51:36;10.60;99.90
10964;DHT22;5534;48.784;9.190;2023-02-20T08:54:02;10.60;99.90
10964;DHT22;5534;48.784;9.190;2023-02-20T08:56:28;10.70;99.90
10964;DHT22;5534;48.784;9.190;2023-02-20T08:58:54;10.70;99.90
10964;DHT22;5534;48.784;9.190;2023-02-20T09:01:20;10.70;99.90
10964;DHT22;5534;48.784;9.190;2023-02-20T09:03:46;10.70;99.90
10964;DHT22;5534;48.784;9.190;2023-02-20T09:06:13;10.70;99.90
10964;DHT22;5534;48.784;9.190;2023-02-20T09:08:39;10.70;99.90
10964;DHT22;5534;48.784;9.190;2023-02-20T09:11:05;10.80;99.90
10964;DHT22;5534;48.784;9.190;2023-02-20T09:13:32;10.90;99.90
10964;DHT22;5534;48.784;9.190;2023-02-20T09:15:58;10.90;99.90
10964;DHT22;5534;48.784;9.190;2023-02-20T09:18:23;11.00;99.90
10964;DHT22;5534;48.784;9.190;2023-02-20T09:20:49;10.80;99.90
10964;DHT22;5534;48.784;9.190;2023-02-20T09:23:15;10.90;99.90
10964;DHT22;5534;48.784;9.190;2023-02-20T09:25:42;10.90;99.90
10964;DHT22;5534;48.784;9.190;2023-02-20T09:28:08;11.20;99.90
10964;DHT22;5534;48.784;9.190;2023-02-20T09:30:33;11.20;99.90
10964;DHT22;5534;48.784;9.190;2023-02-20T09:32:59;11.00;99.90
10964;DHT22;5534;48.784;9.190;2023-02-20T09:35:27;11.20;99.90
10964;DHT22;5534;48.784;9.190;2023-02-20T09:37:54;11.40;99.90
10964;DHT22;5534;48.784;9.190;2023-02-20T09:40:25;11.40;99.90
10964;DHT22;5534;48.784;9.190;2023-02-20T09:46:04;11.40;99.90
10964;DHT22;5534;48.784;9.190;2023-02-20T09:51:23;11.90;99.90
10964;DHT22;5534;48.784;9.190;2023-02-20T09:54:07;12.20;99.90
10964;DHT22;5534;48.784;9.190;2023-02-20T09:56:41;12.20;99.90
10964;DHT22;5534;48.784;9.190;2023-02-20T10:04:20;12.50;99.90
10964;DHT22;5534;48.784;9.190;2023-02-20T10:06:50;12.50;99.90
10964;DHT22;5534;48.784;9.190;2023-02-20T10:09:18;12.60;99.90
10964;DHT22;5534;48.784;9.190;2023-02-20T10:11:48;12.70;99.90
10964;DHT22;5534;48.784;9.190;2023-02-20T10:19:56;12.60;99.90
10964;DHT22;5534;48.784;9.190;2023-02-20T10:22:32;12.80;99.90
10964;DHT22;5534;48.784;9.190;2023-02-20T10:25:19;12.90;99.90
10964;DHT22;5534;48.784;9.190;2023-02-20T10:27:52;12.90;99.90
10964;DHT22;5534;48.784;9.190;2023-02-20T10:30:30;12.90;99.90
10964;DHT22;5534;48.784;9.190;2023-02-20T10:36:18;13.10;99.90
10964;DHT22;5534;48.784;9.190;2023-02-20T10:39:04;13.30;99.90
10964;DHT22;5534;48.784;9.190;2023-02-20T10:44:43;13.70;99.90
10964;DHT22;5534;48.784;9.190;2023-02-20T10:47:19;13.80;99.90
10964;DHT22;5534;48.784;9.190;2023-02-20T10:50:01;14.00;99.90
10964;DHT22;5534;48.784;9.190;2023-02-20T10:52:36;14.10;99.90
10964;DHT22;5534;48.784;9.190;2023-02-20T10:55:17;14.00;99.90
10964;DHT22;5534;48.784;9.190;2023-02-20T11:00:59;14.20;99.90
10964;DHT22;5534;48.784;9.190;2023-02-20T11:03:52;14.20;99.90
10964;DHT22;5534;48.784;9.190;2023-02-20T11:06:22;14.30;99.90
10964;DHT22;5534;48.784;9.190;2023-02-20T11:08:50;14.40;99.90
10964;DHT22;5534;48.784;9.190;2023-02-20T11:11:35;14.40;99.90
10964;DHT22;5534;48.784;9.190;2023-02-20T11:14:13;14.60;99.90
10964;DHT22;5534;48.784;9.190;2023-02-20T11:16:53;14.50;99.90
10964;DHT22;5534;48.784;9.190;2023-02-20T11:19:37;14.40;99.90
10964;DHT22;5534;48.784;9.190;2023-02-20T11:22:04;14.30;99.90
10964;DHT22;5534;48.784;9.190;2023-02-20T11:24:35;14.10;99.90
10964;DHT22;5534;48.784;9.190;2023-02-20T11:27:21;14.20;99.90
10964;DHT22;5534;48.784;9.190;2023-02-20T11:30:11;14.30;99.90
10964;DHT22;5534;48.784;9.190;2023-02-20T11:32:42;14.60;99.90
10964;DHT22;5534;48.784;9.190;2023-02-20T11:35:22;14.80;99.90
10964;DHT22;5534;48.784;9.190;2023-02-20T11:43:40;15.00;99.90
10964;DHT22;5534;48.784;9.190;2023-02-20T11:46:24;15.10;99.90
10964;DHT22;5534;48.784;9.190;2023-02-20T11:54:06;15.40;99.90
10964;DHT22;5534;48.784;9.190;2023-02-20T11:56:33;15.30;99.90
10964;DHT22;5534;48.784;9.190;2023-02-20T12:01:51;15.50;99.90
10964;DHT22;5534;48.784;9.190;2023-02-20T12:04:21;15.60;99.90
10964;DHT22;5534;48.784;9.190;2023-02-20T12:06:48;15.50;99.90
10964;DHT22;5534;48.784;9.190;2023-02-20T12:09:19;15.30;99.90
10964;DHT22;5534;48.784;9.190;2023-02-20T12:11:45;15.40;99.90
10964;DHT22;5534;48.784;9.190;2023-02-20T12:14:15;15.50;99.90
10964;DHT22;5534;48.784;9.190;2023-02-20T12:25:07;15.70;99.90
10964;DHT22;5534;48.784;9.190;2023-02-20T12:27:59;15.80;99.90
10964;DHT22;5534;48.784;9.190;2023-02-20T12:31:01;15.80;99.90
10964;DHT22;5534;48.784;9.190;2023-02-20T12:33:43;16.00;99.90
10964;DHT22;5534;48.784;9.190;2023-02-20T12:36:48;16.10;99.90
10964;DHT22;5534;48.784;9.190;2023-02-20T12:39:42;16.30;99.90
10964;DHT22;5534;48.784;9.190;2023-02-20T12:47:43;16.60;99.90
10964;DHT22;5534;48.784;9.190;2023-02-20T12:50:25;16.60;99.90
10964;DHT22;5534;48.784;9.190;2023-02-20T13:00:46;16.70;99.90
10964;DHT22;5534;48.784;9.190;2023-02-20T13:06:04;16.90;99.90
10964;DHT22;5534;48.784;9.190;2023-02-20T13:08:33;16.80;99.90
10964;DHT22;5534;48.784;9.190;2023-02-20T13:11:08;16.70;99.90
10964;DHT22;5534;48.784;9.190;2023-02-20T13:16:36;16.90;99.90
10964;DHT22;5534;48.784;9.190;2023-02-20T13:21:44;16.90;99.90
10964;DHT22;5534;48.784;9.190;2023-02-20T13:24:34;17.10;99.90
10964;DHT22;5534;48.784;9.190;2023-02-20T13:27:06;17.20;98.90
10964;DHT22;5534;48.784;9.190;2023-02-20T13:29:35;17.30;98.10
10964;DHT22;5534;48.784;9.190;2023-02-20T13:32:20;17.20;98.10
10964;DHT22;5534;48.784;9.190;2023-02-20T13:34:47;17.20;98.40
10964;DHT22;5534;48.784;9.190;2023-02-20T13:45:45;17.40;96.90
10964;DHT22;5534;48.784;9.190;2023-02-20T13:56:19;17.30;95.70
10964;DHT22;5534;48.784;9.190;2023-02-20T13:58:45;17.20;95.70
10964;DHT22;5534;48.784;9.190;2023-02-20T14:01:12;17.40;95.10
10964;DHT22;5534;48.784;9.190;2023-02-20T14:03:39;17.20;95.20
10964;DHT22;5534;48.784;9.190;2023-02-20T14:06:09;17.50;94.20
10964;DHT22;5534;48.784;9.190;2023-02-20T14:08:41;17.40;94.30
10964;DHT22;5534;48.784;9.190;2023-02-20T14:11:12;17.40;93.60
10964;DHT22;5534;48.784;9.190;2023-02-20T14:13:41;17.20;93.10
10964;DHT22;5534;48.784;9.190;2023-02-20T14:18:58;17.10;93.20
10964;DHT22;5534;48.784;9.190;2023-02-20T14:21:25;17.20;92.50
10964;DHT22;5534;48.784;9.190;2023-02-20T14:23:52;17.20;92.20
10964;DHT22;5534;48.784;9.190;2023-02-20T14:26:22;17.20;90.30
10964;DHT22;5534;48.784;9.190;2023-02-20T14:28:50;17.20;89.50
10964;DHT22;5534;48.784;9.190;2023-02-20T14:31:39;17.20;87.70
10964;DHT22;5534;48.784;9.190;2023-02-20T14:34:18;17.20;86.40
10964;DHT22;5534;48.784;9.190;2023-02-20T14:42:23;17.00;88.10
10964;DHT22;5534;48.784;9.190;2023-02-20T14:45:05;16.80;87.70
10964;DHT22;5534;48.784;9.190;2023-02-20T14:47:31;16.80;87.40
10964;DHT22;5534;48.784;9.190;2023-02-20T14:50:19;16.70;90.10
10964;DHT22;5534;48.784;9.190;2023-02-20T14:53:03;16.60;90.60
10964;DHT22;5534;48.784;9.190;2023-02-20T14:55:29;16.70;93.30
10964;DHT22;5534;48.784;9.190;2023-02-20T14:57:55;16.60;94.30
10964;DHT22;5534;48.784;9.190;2023-02-20T15:00:32;16.50;95.00
10964;DHT22;5534;48.784;9.190;2023-02-20T15:02:58;16.40;95.40
10964;DHT22;5534;48.784;9.190;2023-02-20T15:05:32;16.30;93.10
10964;DHT22;5534;48.784;9.190;2023-02-20T15:08:22;16.40;92.20
10964;DHT22;5534;48.784;9.190;2023-02-20T15:10:53;16.30;91.60
10964;DHT22;5534;48.784;9.190;2023-02-20T15:13:27;16.40;91.50
10964;DHT22;5534;48.784;9.190;2023-02-20T15:16:11;16.40;91.40
10964;DHT22;5534;48.784;9.190;2023-02-20T15:18:41;16.30;91.10
10964;DHT22;5534;48.784;9.190;2023-02-20T15:21:07;16.30;91.00
10964;DHT22;5534;48.784;9.190;2023-02-20T15:23:40;16.40;90.70
10964;DHT22;5534;48.784;9.190;2023-02-20T15:29:20;16.40;90.50
10964;DHT22;5534;48.784;9.190;2023-02-20T15:32:05;16.30;90.80
10964;DHT22;5534;48.784;9.190;2023-02-20T15:34:38;16.10;90.70
10964;DHT22;5534;48.784;9.190;2023-02-20T15:37:23;16.20;90.40
10964;DHT22;5534;48.784;9.190;2023-02-20T15:39:51;16.00;89.50
10964;DHT22;5534;48.784;9.190;2023-02-20T15:42:19;15.90;89.30
10964;DHT22;5534;48.784;9.190;2023-02-20T15:44:45;16.00;87.50
10964;DHT22;5534;48.784;9.190;2023-02-20T15:47:11;15.80;87.90
10964;DHT22;5534;48.784;9.190;2023-02-20T15:49:37;15.90;87.90
10964;DHT22;5534;48.784;9.190;2023-02-20T15:52:05;15.80;88.10
10964;DHT22;5534;48.784;9.190;2023-02-20T15:54:31;15.70;89.80
10964;DHT22;5534;48.784;9.190;2023-02-20T15:56:57;15.60;89.40
10964;DHT22;5534;48.784;9.190;2023-02-20T15:59:23;15.70;89.10
10964;DHT22;5534;48.784;9.190;2023-02-20T16:01:51;15.70;87.60
10964;DHT22;5534;48.784;9.190;2023-02-20T16:04:17;15.70;87.80
10964;DHT22;5534;48.784;9.190;2023-02-20T16:06:43;15.60;88.30
10964;DHT22;5534;48.784;9.190;2023-02-20T16:09:10;15.50;88.50
10964;DHT22;5534;48.784;9.190;2023-02-20T16:11:40;15.40;87.90
10964;DHT22;5534;48.784;9.190;2023-02-20T16:14:06;15.50;88.40
10964;DHT22;5534;48.784;9.190;2023-02-20T16:16:38;15.40;88.80
10964;DHT22;5534;48.784;9.190;2023-02-20T16:19:20;15.20;89.90
10964;DHT22;5534;48.784;9.190;2023-02-20T16:21:47;15.20;90.20
10964;DHT22;5534;48.784;9.190;2023-02-20T16:24:14;15.10;90.30
10964;DHT22;5534;48.784;9.190;2023-02-20T16:26:42;15.00;90.80
10964;DHT22;5534;48.784;9.190;2023-02-20T16:29:16;15.00;91.10
10964;DHT22;5534;48.784;9.190;2023-02-20T16:34:23;15.00;92.00
10964;DHT22;5534;48.784;9.190;2023-02-20T16:36:50;14.80;92.00
10964;DHT22;5534;48.784;9.190;2023-02-20T16:39:16;14.70;92.60
10964;DHT22;5534;48.784;9.190;2023-02-20T16:41:43;14.60;92.90
10964;DHT22;5534;48.784;9.190;2023-02-20T16:44:13;14.70;92.90
10964;DHT22;5534;48.784;9.190;2023-02-20T16:46:40;14.50;93.10
10964;DHT22;5534;48.784;9.190;2023-02-20T16:49:06;14.40;92.90
10964;DHT22;5534;48.784;9.190;2023-02-20T16:51:32;14.40;93.10
10964;DHT22;5534;48.784;9.190;2023-02-20T16:53:58;14.30;93.10
10964;DHT22;5534;48.784;9.190;2023-02-20T16:56:23;14.20;92.90
10964;DHT22;5534;48.784;9.190;2023-02-20T16:58:49;14.20;92.90
10964;DHT22;5534;48.784;9.190;2023-02-20T17:01:16;14.20;93.00
10964;DHT22;5534;48.784;9.190;2023-02-20T17:03:42;14.10;93.20
10964;DHT22;5534;48.784;9.190;2023-02-20T17:06:08;14.20;92.90
10964;DHT22;5534;48.784;9.190;2023-02-20T17:08:34;14.10;93.10
10964;DHT22;5534;48.784;9.190;2023-02-20T17:11:00;14.00;94.00
10964;DHT22;5534;48.784;9.190;2023-02-20T17:13:27;13.90;93.90
10964;DHT22;5534;48.784;9.190;2023-02-20T17:15:54;13.70;93.80
10964;DHT22;5534;48.784;9.190;2023-02-20T17:18:20;13.70;94.20
10964;DHT22;5534;48.784;9.190;2023-02-20T17:20:45;13.60;93.90
10964;DHT22;5534;48.784;9.190;2023-02-20T17:23:11;13.60;94.10
10964;DHT22;5534;48.784;9.190;2023-02-20T17:25:37;13.50;94.10
10964;DHT22;5534;48.784;9.190;2023-02-20T17:28:04;13.40;94.60
10964;DHT22;5534;48.784;9.190;2023-02-20T17:30:30;13.20;95.20
10964;DHT22;5534;48.784;9.190;2023-02-20T17:32:55;13.10;95.60
10964;DHT22;5534;48.784;9.190;2023-02-20T17:35:21;13.00;95.60
10964;DHT22;5534;48.784;9.190;2023-02-20T17:37:47;13.00;95.70
10964;DHT22;5534;48.784;9.190;2023-02-20T17:40:15;12.90;96.60
10964;DHT22;5534;48.784;9.190;2023-02-20T17:42:41;13.00;97.20
10964;DHT22;5534;48.784;9.190;2023-02-20T17:45:08;12.90;96.90
10964;DHT22;5534;48.784;9.190;2023-02-20T17:47:34;12.80;96.90
10964;DHT22;5534;48.784;9.190;2023-02-20T17:50:02;12.70;96.40
10964;DHT22;5534;48.784;9.190;2023-02-20T17:52:28;12.70;96.00
10964;DHT22;5534;48.784;9.190;2023-02-20T17:54:53;12.60;96.70
10964;DHT22;5534;48.784;9.190;2023-02-20T17:57:20;12.60;97.00
10964;DHT22;5534;48.784;9.190;2023-02-20T17:59:47;12.50;97.10
10964;DHT22;5534;48.784;9.190;2023-02-20T18:02:16;12.60;97.20
10964;DHT22;5534;48.784;9.190;2023-02-20T18:04:43;12.60;97.00
10964;DHT22;5534;48.784;9.190;2023-02-20T18:07:09;12.60;96.80
10964;DHT22;5534;48.784;9.190;2023-02-20T18:09:35;12.60;97.10
10964;DHT22;5534;48.784;9.190;2023-02-20T18:12:02;12.60;97.00
10964;DHT22;5534;48.784;9.190;2023-02-20T18:14:29;12.60;97.80
10964;DHT22;5534;48.784;9.190;2023-02-20T18:16:56;12.70;97.50
10964;DHT22;5534;48.784;9.190;2023-02-20T18:19:22;12.70;98.20